createdAt,value
2023-04-26T00:00:59.642Z,100.00
2023-04-26T00:02:04.224Z,100.00
2023-04-26T00:03:08.675Z,100.00
2023-04-26T00:04:13.023Z,100.00
2023-04-26T00:05:17.470Z,100.00
2023-04-26T00:06:21.844Z,100.00
2023-04-26T00:07:25.942Z,100.00
2023-04-26T00:08:30.007Z,100.00
2023-04-26T00:09:34.351Z,100.00
2023-04-26T00:10:38.678Z,100.00
2023-04-26T00:11:43.273Z,100.00
2023-04-26T00:12:47.338Z,100.00
2023-04-26T00:13:52.190Z,100.00
2023-04-26T00:14:56.535Z,100.00
2023-04-26T00:16:00.450Z,100.00
2023-04-26T00:17:04.683Z,100.00
2023-04-26T00:18:09.301Z,100.00
2023-04-26T00:19:13.624Z,100.00
2023-04-26T00:20:17.944Z,100.00
2023-04-26T00:21:22.054Z,100.00
2023-04-26T00:22:26.373Z,100.00
2023-04-26T00:23:30.957Z,100.00
2023-04-26T00:24:35.312Z,100.00
2023-04-26T00:25:35.406Z,100.00
2023-04-26T00:26:39.762Z,100.00
2023-04-26T00:27:44.072Z,100.00
2023-04-26T00:28:48.419Z,100.00
2023-04-26T00:29:59.290Z,100.00
2023-04-26T00:30:56.837Z,100.00
2023-04-26T00:32:01.462Z,100.00
2023-04-26T00:33:05.541Z,100.00
2023-04-26T00:34:10.104Z,100.00
2023-04-26T00:35:14.675Z,100.00
2023-04-26T00:36:18.773Z,100.00
2023-04-26T00:37:23.382Z,100.00
2023-04-26T00:38:27.465Z,100.00
2023-04-26T00:39:31.527Z,100.00
2023-04-26T00:40:35.845Z,100.00
2023-04-26T00:41:40.177Z,100.00
2023-04-26T00:42:44.519Z,100.00
2023-04-26T00:43:49.377Z,100.00
2023-04-26T00:44:53.455Z,100.00
2023-04-26T00:45:57.613Z,100.00
2023-04-26T00:47:01.878Z,100.00
2023-04-26T00:48:06.370Z,100.00
2023-04-26T00:49:10.538Z,100.00
2023-04-26T00:50:14.876Z,100.00
2023-04-26T00:51:19.227Z,100.00
2023-04-26T00:52:23.796Z,100.00
2023-04-26T00:53:28.169Z,100.00
2023-04-26T00:54:32.718Z,100.00
2023-04-26T00:55:32.674Z,100.00
2023-04-26T00:56:37.185Z,100.00
2023-04-26T00:57:41.263Z,100.00
2023-04-26T00:58:45.339Z,100.00
2023-04-26T00:59:49.675Z,100.00
2023-04-26T01:00:54.295Z,100.00
2023-04-26T01:01:58.682Z,100.00
2023-04-26T01:03:03.090Z,100.00
2023-04-26T01:04:07.345Z,100.00
2023-04-26T01:05:11.862Z,100.00
2023-04-26T01:06:15.673Z,100.00
2023-04-26T01:07:20.257Z,100.00
2023-04-26T01:08:24.335Z,100.00
2023-04-26T01:09:28.702Z,100.00
2023-04-26T01:10:33.275Z,100.00
2023-04-26T01:11:37.590Z,100.00
2023-04-26T01:12:41.701Z,100.00
2023-04-26T01:13:46.532Z,100.00
2023-04-26T01:14:50.611Z,100.00
2023-04-26T01:15:54.702Z,100.00
2023-04-26T01:16:59.303Z,100.00
2023-04-26T01:18:03.445Z,100.00
2023-04-26T01:19:07.711Z,100.00
2023-04-26T01:20:12.289Z,100.00
2023-04-26T01:21:16.372Z,100.00
2023-04-26T01:22:20.988Z,100.00
2023-04-26T01:23:25.567Z,100.00
2023-04-26T01:24:29.648Z,100.00
2023-04-26T01:25:29.750Z,100.00
2023-04-26T01:26:33.846Z,100.00
2023-04-26T01:27:38.440Z,100.00
2023-04-26T01:28:42.513Z,100.00
2023-04-26T01:29:46.840Z,100.00
2023-04-26T01:30:51.447Z,100.00
2023-04-26T01:31:55.504Z,100.00
2023-04-26T01:33:00.140Z,100.00
2023-04-26T01:34:04.702Z,100.00
2023-04-26T01:35:09.018Z,100.00
2023-04-26T01:36:13.119Z,100.00
2023-04-26T01:37:17.459Z,100.00
2023-04-26T01:38:21.514Z,100.00
2023-04-26T01:39:25.858Z,100.00
2023-04-26T01:40:30.222Z,100.00
2023-04-26T01:41:34.798Z,100.00
2023-04-26T01:42:38.880Z,100.00
2023-04-26T01:43:43.467Z,100.00
2023-04-26T01:44:47.550Z,100.00
2023-04-26T01:45:51.969Z,100.00
2023-04-26T01:46:56.223Z,100.00
2023-04-26T01:48:00.603Z,100.00
2023-04-26T01:49:05.174Z,100.00
2023-04-26T01:50:09.510Z,100.00
2023-04-26T01:51:13.559Z,100.00
2023-04-26T01:52:18.413Z,100.00
2023-04-26T01:53:22.492Z,100.00
2023-04-26T01:54:26.569Z,100.00
2023-04-26T01:55:26.957Z,100.00
2023-04-26T01:56:31.035Z,100.00
2023-04-26T01:57:35.349Z,100.00
2023-04-26T01:58:39.684Z,100.00
2023-04-26T01:59:44.262Z,100.00
2023-04-26T02:00:48.608Z,100.00
2023-04-26T02:01:52.981Z,100.00
2023-04-26T02:02:57.119Z,100.00
2023-04-26T02:04:01.909Z,100.00
2023-04-26T02:05:05.981Z,100.00
2023-04-26T02:06:10.036Z,100.00
2023-04-26T02:07:14.360Z,100.00
2023-04-26T02:08:18.711Z,100.00
2023-04-26T02:09:23.306Z,100.00
2023-04-26T02:10:27.368Z,100.00
2023-04-26T02:11:31.712Z,100.00
2023-04-26T02:12:36.578Z,100.00
2023-04-26T02:13:40.869Z,100.00
2023-04-26T02:14:44.975Z,100.00
2023-04-26T02:15:49.089Z,100.00
2023-04-26T02:16:53.406Z,100.00
2023-04-26T02:17:57.792Z,100.00
2023-04-26T02:19:02.345Z,100.00
2023-04-26T02:20:06.403Z,100.00
2023-04-26T02:21:11.004Z,100.00
2023-04-26T02:22:15.578Z,100.00
2023-04-26T02:23:19.926Z,100.00
2023-04-26T02:24:23.767Z,100.00
2023-04-26T02:25:26.823Z,100.00
2023-04-26T02:26:31.168Z,100.00
2023-04-26T02:27:35.761Z,100.00
2023-04-26T02:28:40.135Z,100.00
2023-04-26T02:29:45.063Z,100.00
2023-04-26T02:30:48.781Z,100.00
2023-04-26T02:31:53.175Z,100.00
2023-04-26T02:32:57.703Z,100.00
2023-04-26T02:34:01.765Z,100.00
2023-04-26T02:35:06.113Z,100.00
2023-04-26T02:36:10.213Z,100.00
2023-04-26T02:37:14.784Z,100.00
2023-04-26T02:38:19.104Z,100.00
2023-04-26T02:39:23.451Z,100.00
2023-04-26T02:40:27.538Z,100.00
2023-04-26T02:41:32.399Z,100.00
2023-04-26T02:42:36.219Z,100.00
2023-04-26T02:43:40.814Z,100.00
2023-04-26T02:44:45.159Z,100.00
2023-04-26T02:45:49.480Z,100.00
2023-04-26T02:46:53.600Z,100.00
2023-04-26T02:47:58.214Z,100.00
2023-04-26T02:49:02.220Z,100.00
2023-04-26T02:50:07.065Z,100.00
2023-04-26T02:51:11.158Z,100.00
2023-04-26T02:52:15.485Z,100.00
2023-04-26T02:53:19.561Z,100.00
2023-04-26T02:54:24.162Z,100.00
2023-04-26T02:55:24.113Z,100.00
2023-04-26T02:56:28.721Z,100.00
2023-04-26T02:57:32.788Z,100.00
2023-04-26T02:58:37.392Z,100.00
2023-04-26T02:59:41.457Z,100.00
2023-04-26T03:00:46.126Z,100.00
2023-04-26T03:01:50.654Z,100.00
2023-04-26T03:02:55.147Z,100.00
2023-04-26T03:03:59.100Z,100.00
2023-04-26T03:05:03.388Z,100.00
2023-04-26T03:06:07.470Z,100.00
2023-04-26T03:07:11.795Z,100.00
2023-04-26T03:08:16.397Z,100.00
2023-04-26T03:09:20.469Z,100.00
2023-04-26T03:10:25.339Z,100.00
2023-04-26T03:11:29.680Z,100.00
2023-04-26T03:12:33.742Z,100.00
2023-04-26T03:13:38.067Z,100.00
2023-04-26T03:14:42.158Z,100.00
2023-04-26T03:15:46.755Z,100.00
2023-04-26T03:16:51.144Z,100.00
2023-04-26T03:17:55.453Z,100.00
2023-04-26T03:18:59.487Z,100.00
2023-04-26T03:20:04.320Z,100.00
2023-04-26T03:21:08.414Z,100.00
2023-04-26T03:22:12.764Z,100.00
2023-04-26T03:23:17.083Z,100.00
2023-04-26T03:24:21.435Z,100.00
2023-04-26T03:25:21.605Z,100.00
2023-04-26T03:26:25.952Z,100.00
2023-04-26T03:27:30.026Z,100.00
2023-04-26T03:28:34.360Z,100.00
2023-04-26T03:29:38.699Z,100.00
2023-04-26T03:30:43.032Z,100.00
2023-04-26T03:31:47.928Z,100.00
2023-04-26T03:32:51.758Z,100.00
2023-04-26T03:33:56.035Z,100.00
2023-04-26T03:35:00.371Z,100.00
2023-04-26T03:36:04.979Z,100.00
2023-04-26T03:37:09.048Z,100.00
2023-04-26T03:38:13.380Z,100.00
2023-04-26T03:39:17.961Z,100.00
2023-04-26T03:40:22.566Z,100.00
2023-04-26T03:41:26.884Z,100.00
2023-04-26T03:42:30.716Z,100.00
2023-04-26T03:43:35.303Z,100.00
2023-04-26T03:44:39.388Z,100.00
2023-04-26T03:45:43.738Z,100.00
2023-04-26T03:46:48.324Z,100.00
2023-04-26T03:47:52.431Z,100.00
2023-04-26T03:48:56.798Z,100.00
2023-04-26T03:50:01.375Z,100.00
2023-04-26T03:51:05.411Z,100.00
2023-04-26T03:52:09.764Z,100.00
2023-04-26T03:53:14.365Z,100.00
2023-04-26T03:54:18.437Z,100.00
2023-04-26T03:55:19.096Z,100.00
2023-04-26T03:56:23.195Z,100.00
2023-04-26T03:57:35.361Z,100.00
2023-04-26T03:58:31.601Z,100.00
2023-04-26T03:59:36.201Z,100.00
2023-04-26T04:00:40.284Z,100.00
2023-04-26T04:01:44.875Z,100.00
2023-04-26T04:02:49.046Z,100.00
2023-04-26T04:03:53.520Z,100.00
2023-04-26T04:04:58.225Z,100.00
2023-04-26T04:06:02.233Z,100.00
2023-04-26T04:07:06.581Z,100.00
2023-04-26T04:08:10.898Z,100.00
2023-04-26T04:09:15.257Z,100.00
2023-04-26T04:10:19.567Z,100.00
2023-04-26T04:11:24.199Z,100.00
2023-04-26T04:12:28.235Z,100.00
2023-04-26T04:13:32.586Z,100.00
2023-04-26T04:14:36.931Z,100.00
2023-04-26T04:15:41.015Z,100.00
2023-04-26T04:16:45.333Z,100.00
2023-04-26T04:17:49.717Z,100.00
2023-04-26T04:18:54.511Z,100.00
2023-04-26T04:19:58.630Z,100.00
2023-04-26T04:21:02.965Z,100.00
2023-04-26T04:22:07.022Z,100.00
2023-04-26T04:23:11.345Z,100.00
2023-04-26T04:24:15.947Z,100.00
2023-04-26T04:25:16.070Z,100.00
2023-04-26T04:26:20.159Z,100.00
2023-04-26T04:27:24.764Z,100.00
2023-04-26T04:28:29.114Z,100.00
2023-04-26T04:29:33.184Z,100.00
2023-04-26T04:30:38.029Z,100.00
2023-04-26T04:31:42.242Z,100.00
2023-04-26T04:32:46.268Z,100.00
2023-04-26T04:33:50.800Z,100.00
2023-04-26T04:34:55.146Z,100.00
2023-04-26T04:35:59.467Z,100.00
2023-04-26T04:37:03.581Z,100.00
2023-04-26T04:38:08.170Z,100.00
2023-04-26T04:39:12.532Z,100.00
2023-04-26T04:40:16.836Z,100.00
2023-04-26T04:41:21.178Z,100.00
2023-04-26T04:42:25.497Z,100.00
2023-04-26T04:43:29.567Z,100.00
2023-04-26T04:44:34.160Z,100.00
2023-04-26T04:45:38.510Z,100.00
2023-04-26T04:46:42.664Z,100.00
2023-04-26T04:47:46.981Z,100.00
2023-04-26T04:48:51.770Z,100.00
2023-04-26T04:49:55.844Z,100.00
2023-04-26T04:51:00.204Z,100.00
2023-04-26T04:52:04.541Z,100.00
2023-04-26T04:53:08.647Z,100.00
2023-04-26T04:54:13.207Z,100.00
2023-04-26T04:55:13.358Z,100.00
2023-04-26T04:56:17.708Z,100.00
2023-04-26T04:57:22.024Z,100.00
2023-04-26T04:58:26.366Z,100.00
2023-04-26T04:59:30.451Z,100.00
2023-04-26T05:00:35.060Z,100.00
2023-04-26T05:01:39.498Z,100.00
2023-04-26T05:02:43.815Z,100.00
2023-04-26T05:03:48.257Z,100.00
2023-04-26T05:04:52.505Z,100.00
2023-04-26T05:05:56.756Z,100.00
2023-04-26T05:07:01.093Z,100.00
2023-04-26T05:08:05.443Z,100.00
2023-04-26T05:09:09.792Z,100.00
2023-04-26T05:10:14.364Z,100.00
2023-04-26T05:11:18.201Z,100.00
2023-04-26T05:12:22.809Z,100.00
2023-04-26T05:13:27.099Z,97.81
2023-04-26T05:14:31.188Z,96.14
2023-04-26T05:15:35.767Z,90.71
2023-04-26T05:16:39.922Z,84.62
2023-04-26T05:17:44.219Z,80.30
2023-04-26T05:18:48.795Z,78.33
2023-04-26T05:19:53.382Z,74.38
2023-04-26T05:20:57.459Z,72.39
2023-04-26T05:22:01.567Z,70.28
2023-04-26T05:23:06.301Z,69.87
2023-04-26T05:24:10.781Z,71.44
2023-04-26T05:25:11.087Z,70.47
2023-04-26T05:26:15.205Z,68.28
2023-04-26T05:27:19.736Z,66.86
2023-04-26T05:28:23.829Z,64.46
2023-04-26T05:29:28.443Z,65.47
2023-04-26T05:30:32.780Z,65.78
2023-04-26T05:31:36.906Z,65.96
2023-04-26T05:32:41.200Z,63.83
2023-04-26T05:33:45.782Z,65.22
2023-04-26T05:34:49.837Z,65.00
2023-04-26T05:35:54.442Z,64.05
2023-04-26T05:36:58.561Z,64.11
2023-04-26T05:38:03.117Z,63.14
2023-04-26T05:39:07.685Z,61.18
2023-04-26T05:40:12.068Z,61.95
2023-04-26T05:41:16.140Z,60.44
2023-04-26T05:42:20.442Z,60.85
2023-04-26T05:43:24.532Z,60.11
2023-04-26T05:44:28.849Z,58.57
2023-04-26T05:45:33.218Z,58.09
2023-04-26T05:46:37.790Z,57.59
2023-04-26T05:47:41.889Z,58.40
2023-04-26T05:48:46.422Z,56.94
2023-04-26T05:49:50.504Z,57.84
2023-04-26T05:50:54.846Z,56.95
2023-04-26T05:51:59.169Z,57.24
2023-04-26T05:53:03.500Z,55.92
2023-04-26T05:54:07.842Z,55.27
2023-04-26T05:55:13.714Z,54.23
2023-04-26T05:56:17.805Z,54.33
2023-04-26T05:57:22.195Z,54.29
2023-04-26T05:58:26.423Z,54.68
2023-04-26T05:59:30.514Z,55.38
2023-04-26T06:00:34.869Z,55.36
2023-04-26T06:01:39.461Z,54.78
2023-04-26T06:02:43.607Z,54.58
2023-04-26T06:03:48.458Z,53.66
2023-04-26T06:04:53.022Z,53.57
2023-04-26T06:05:57.270Z,53.68
2023-04-26T06:07:01.468Z,52.46
2023-04-26T06:08:05.290Z,51.27
2023-04-26T06:09:09.906Z,50.82
2023-04-26T06:10:13.976Z,49.42
2023-04-26T06:11:18.593Z,51.18
2023-04-26T06:12:22.974Z,51.20
2023-04-26T06:13:27.250Z,51.37
2023-04-26T06:14:31.592Z,49.88
2023-04-26T06:15:36.177Z,48.43
2023-04-26T06:16:41.753Z,47.42
2023-04-26T06:17:42.070Z,46.78
2023-04-26T06:18:49.334Z,46.14
2023-04-26T06:19:53.698Z,47.22
2023-04-26T06:20:58.034Z,46.91
2023-04-26T06:22:02.090Z,45.42
2023-04-26T06:23:06.435Z,46.40
2023-04-26T06:24:11.044Z,47.07
2023-04-26T06:25:16.398Z,46.37
2023-04-26T06:26:20.479Z,46.30
2023-04-26T06:27:24.807Z,46.52
2023-04-26T06:28:29.286Z,46.93
2023-04-26T06:29:33.772Z,45.57
2023-04-26T06:30:37.926Z,45.51
2023-04-26T06:31:42.430Z,45.99
2023-04-26T06:32:46.793Z,47.03
2023-04-26T06:33:51.513Z,46.76
2023-04-26T06:34:55.465Z,46.88
2023-04-26T06:35:59.533Z,47.06
2023-04-26T06:37:03.868Z,46.05
2023-04-26T06:38:22.616Z,44.83
2023-04-26T06:39:08.834Z,44.37
2023-04-26T06:40:13.427Z,45.98
2023-04-26T06:41:17.520Z,45.46
2023-04-26T06:42:21.863Z,44.79
2023-04-26T06:43:26.476Z,43.51
2023-04-26T06:44:30.821Z,45.44
2023-04-26T06:45:34.872Z,45.08
2023-04-26T06:46:39.413Z,44.82
2023-04-26T06:47:44.041Z,44.93
2023-04-26T06:48:47.889Z,46.24
2023-04-26T06:49:52.216Z,46.14
2023-04-26T06:50:56.553Z,48.38
2023-04-26T06:52:01.371Z,49.26
2023-04-26T06:53:05.741Z,48.15
2023-04-26T06:54:12.382Z,48.62
2023-04-26T06:55:11.506Z,47.36
2023-04-26T06:56:12.154Z,47.02
2023-04-26T06:57:16.555Z,46.16
2023-04-26T06:58:20.316Z,47.82
2023-04-26T06:59:24.945Z,48.11
2023-04-26T07:00:29.296Z,48.10
2023-04-26T07:01:33.664Z,48.57
2023-04-26T07:02:37.899Z,49.02
2023-04-26T07:03:42.180Z,48.77
2023-04-26T07:04:46.607Z,48.20
2023-04-26T07:05:51.043Z,47.16
2023-04-26T07:06:55.048Z,46.92
2023-04-26T07:07:58.639Z,45.55
2023-04-26T07:09:04.037Z,45.08
2023-04-26T07:10:08.323Z,42.44
2023-04-26T07:11:12.402Z,42.73
2023-04-26T07:12:16.723Z,43.50
2023-04-26T07:13:21.087Z,44.59
2023-04-26T07:14:25.945Z,45.51
2023-04-26T07:15:30.000Z,46.01
2023-04-26T07:16:34.178Z,47.15
2023-04-26T07:17:38.702Z,47.05
2023-04-26T07:18:43.015Z,47.94
2023-04-26T07:19:47.336Z,48.80
2023-04-26T07:20:51.451Z,49.00
2023-04-26T07:21:55.777Z,48.82
2023-04-26T07:23:00.378Z,48.76
2023-04-26T07:24:04.707Z,47.25
2023-04-26T07:25:09.060Z,46.83
2023-04-26T07:26:09.400Z,45.06
2023-04-26T07:27:13.525Z,44.53
2023-04-26T07:28:17.668Z,44.33
2023-04-26T07:29:40.014Z,44.53
2023-04-26T07:30:39.137Z,44.61
2023-04-26T07:31:43.757Z,45.76
2023-04-26T07:32:48.186Z,46.55
2023-04-26T07:33:52.397Z,47.23
2023-04-26T07:34:56.519Z,47.38
2023-04-26T07:36:01.328Z,47.65
2023-04-26T07:37:05.688Z,46.21
2023-04-26T07:38:09.764Z,47.05
2023-04-26T07:39:14.085Z,47.16
2023-04-26T07:40:18.432Z,47.04
2023-04-26T07:41:22.768Z,47.91
2023-04-26T07:42:27.101Z,47.85
2023-04-26T07:43:31.423Z,48.38
2023-04-26T07:44:35.504Z,48.67
2023-04-26T07:45:40.415Z,49.54
2023-04-26T07:46:44.234Z,50.80
2023-04-26T07:47:48.956Z,50.85
2023-04-26T07:48:52.918Z,52.08
2023-04-26T07:49:57.242Z,51.50
2023-04-26T07:51:01.824Z,51.30
2023-04-26T07:52:06.171Z,50.93
2023-04-26T07:53:10.495Z,50.71
2023-04-26T07:54:15.091Z,50.77
2023-04-26T07:55:19.462Z,50.29
2023-04-26T07:56:23.296Z,49.08
2023-04-26T07:57:27.625Z,46.97
2023-04-26T07:58:32.229Z,45.96
2023-04-26T07:59:32.093Z,45.20
2023-04-26T08:00:36.413Z,44.98
2023-04-26T08:01:40.792Z,45.43
2023-04-26T08:02:45.744Z,45.80
2023-04-26T08:03:49.917Z,46.10
2023-04-26T08:04:54.187Z,46.52
2023-04-26T08:05:58.833Z,46.80
2023-04-26T08:07:02.720Z,46.85
2023-04-26T08:08:07.003Z,47.82
2023-04-26T08:09:11.083Z,47.83
2023-04-26T08:10:15.428Z,47.13
2023-04-26T08:11:19.759Z,46.80
2023-04-26T08:12:24.368Z,47.13
2023-04-26T08:13:29.565Z,46.19
2023-04-26T08:14:33.282Z,44.31
2023-04-26T08:15:37.380Z,44.16
2023-04-26T08:16:41.476Z,42.94
2023-04-26T08:17:45.832Z,42.69
2023-04-26T08:18:50.120Z,42.44
2023-04-26T08:19:54.634Z,41.80
2023-04-26T08:21:01.791Z,41.47
2023-04-26T08:22:00.905Z,41.57
2023-04-26T08:23:05.256Z,42.11
2023-04-26T08:24:09.852Z,42.43
2023-04-26T08:25:14.173Z,42.24
2023-04-26T08:26:18.803Z,43.03
2023-04-26T08:27:22.881Z,43.23
2023-04-26T08:28:26.952Z,43.77
2023-04-26T08:29:27.348Z,44.13
2023-04-26T08:30:31.575Z,44.65
2023-04-26T08:31:35.820Z,45.42
2023-04-26T08:32:43.202Z,45.97
2023-04-26T08:33:42.251Z,45.75
2023-04-26T08:34:46.864Z,46.49
2023-04-26T08:35:51.008Z,46.18
2023-04-26T08:36:55.514Z,47.30
2023-04-26T08:38:00.108Z,47.88
2023-04-26T08:39:04.190Z,48.74
2023-04-26T08:40:08.265Z,49.02
2023-04-26T08:41:12.851Z,48.51
2023-04-26T08:42:16.941Z,48.74
2023-04-26T08:43:28.071Z,49.17
2023-04-26T08:44:25.887Z,48.93
2023-04-26T08:45:29.937Z,48.91
2023-04-26T08:46:34.879Z,48.41
2023-04-26T08:47:38.914Z,48.41
2023-04-26T08:48:42.976Z,48.74
2023-04-26T08:49:47.312Z,49.48
2023-04-26T08:50:51.639Z,50.02
2023-04-26T08:51:56.271Z,51.25
2023-04-26T08:53:00.603Z,51.43
2023-04-26T08:54:05.101Z,52.25
2023-04-26T08:55:09.036Z,52.34
2023-04-26T08:56:13.869Z,53.09
2023-04-26T08:57:27.707Z,54.07
2023-04-26T08:58:33.282Z,54.19
2023-04-26T08:59:37.350Z,53.96
2023-04-26T09:00:41.446Z,54.29
2023-04-26T09:01:45.815Z,54.03
2023-04-26T09:02:50.577Z,53.36
2023-04-26T09:03:54.693Z,53.47
2023-04-26T09:04:58.907Z,54.55
2023-04-26T09:06:09.931Z,53.93
2023-04-26T09:07:08.086Z,53.26
2023-04-26T09:08:12.403Z,53.44
2023-04-26T09:09:16.229Z,51.69
2023-04-26T09:10:20.928Z,52.73
2023-04-26T09:11:24.953Z,52.96
2023-04-26T09:12:29.667Z,53.60
2023-04-26T09:13:33.666Z,53.04
2023-04-26T09:14:38.278Z,53.12
2023-04-26T09:15:42.643Z,52.97
2023-04-26T09:16:47.224Z,53.10
2023-04-26T09:17:53.998Z,52.69
2023-04-26T09:18:53.420Z,51.12
2023-04-26T09:19:57.373Z,52.25
2023-04-26T09:21:01.703Z,52.14
2023-04-26T09:22:06.322Z,52.12
2023-04-26T09:23:10.709Z,51.30
2023-04-26T09:24:15.026Z,50.02
2023-04-26T09:25:19.432Z,50.02
2023-04-26T09:26:23.698Z,49.18
2023-04-26T09:27:23.864Z,49.25
2023-04-26T09:28:27.932Z,49.35
2023-04-26T09:29:32.529Z,49.29
2023-04-26T09:30:36.856Z,49.05
2023-04-26T09:31:41.012Z,48.50
2023-04-26T09:32:45.403Z,47.92
2023-04-26T09:33:49.867Z,47.55
2023-04-26T09:34:53.968Z,47.08
2023-04-26T09:35:58.290Z,48.20
2023-04-26T09:37:02.645Z,47.25
2023-04-26T09:38:12.239Z,47.44
2023-04-26T09:39:11.605Z,46.58
2023-04-26T09:40:15.897Z,45.95
2023-04-26T09:41:20.004Z,45.49
2023-04-26T09:42:24.323Z,45.10
2023-04-26T09:43:28.663Z,44.79
2023-04-26T09:44:33.261Z,44.55
2023-04-26T09:45:37.345Z,44.72
2023-04-26T09:46:42.249Z,44.52
2023-04-26T09:47:46.552Z,44.04
2023-04-26T09:48:50.784Z,43.23
2023-04-26T09:49:53.923Z,43.87
2023-04-26T09:50:59.040Z,43.06
2023-04-26T09:52:03.366Z,41.97
2023-04-26T09:53:07.690Z,41.04
2023-04-26T09:54:12.291Z,40.30
2023-04-26T09:55:31.151Z,40.61
2023-04-26T09:56:21.204Z,39.59
2023-04-26T09:57:21.060Z,39.21
2023-04-26T09:58:25.664Z,38.49
2023-04-26T09:59:30.001Z,39.81
2023-04-26T10:00:34.139Z,39.97
2023-04-26T10:01:38.432Z,39.70
2023-04-26T10:02:42.545Z,39.54
2023-04-26T10:03:47.268Z,39.40
2023-04-26T10:04:51.463Z,40.38
2023-04-26T10:05:55.498Z,39.97
2023-04-26T10:06:59.848Z,40.10
2023-04-26T10:08:04.446Z,39.34
2023-04-26T10:09:08.771Z,39.99
2023-04-26T10:10:13.119Z,40.23
2023-04-26T10:11:17.585Z,40.31
2023-04-26T10:12:21.519Z,39.99
2023-04-26T10:13:25.871Z,40.30
2023-04-26T10:14:30.203Z,40.10
2023-04-26T10:15:34.774Z,40.24
2023-04-26T10:16:39.157Z,40.52
2023-04-26T10:17:43.754Z,41.00
2023-04-26T10:18:47.791Z,40.38
2023-04-26T10:19:52.112Z,40.95
2023-04-26T10:20:56.478Z,41.90
2023-04-26T10:22:00.858Z,41.73
2023-04-26T10:23:05.151Z,41.52
2023-04-26T10:24:09.475Z,42.17
2023-04-26T10:25:13.552Z,42.18
2023-04-26T10:26:18.397Z,42.04
2023-04-26T10:27:18.010Z,42.03
2023-04-26T10:28:22.860Z,43.01
2023-04-26T10:29:26.973Z,43.40
2023-04-26T10:30:31.025Z,43.79
2023-04-26T10:31:35.393Z,42.87
2023-04-26T10:32:39.726Z,43.44
2023-04-26T10:33:44.297Z,42.57
2023-04-26T10:34:48.623Z,44.07
2023-04-26T10:35:52.966Z,44.27
2023-04-26T10:36:57.290Z,44.25
2023-04-26T10:38:01.699Z,43.52
2023-04-26T10:39:05.958Z,42.88
2023-04-26T10:40:10.060Z,43.42
2023-04-26T10:41:14.655Z,43.29
2023-04-26T10:42:19.103Z,43.24
2023-04-26T10:43:23.740Z,43.28
2023-04-26T10:44:27.414Z,42.56
2023-04-26T10:45:31.776Z,42.53
2023-04-26T10:46:36.428Z,42.44
2023-04-26T10:47:40.934Z,43.16
2023-04-26T10:48:44.749Z,42.76
2023-04-26T10:49:49.328Z,42.75
2023-04-26T10:50:53.426Z,43.15
2023-04-26T10:51:57.751Z,42.54
2023-04-26T10:53:02.386Z,43.19
2023-04-26T10:54:06.452Z,42.23
2023-04-26T10:55:11.040Z,42.83
2023-04-26T10:56:15.612Z,42.98
2023-04-26T10:57:15.516Z,42.92
2023-04-26T10:58:20.101Z,41.78
2023-04-26T10:59:39.700Z,42.52
2023-04-26T11:00:31.359Z,42.49
2023-04-26T11:01:32.888Z,42.57
2023-04-26T11:02:37.264Z,42.39
2023-04-26T11:03:41.725Z,42.36
2023-04-26T11:04:45.616Z,42.19
2023-04-26T11:05:52.909Z,41.35
2023-04-26T11:06:51.789Z,41.98
2023-04-26T11:07:56.120Z,42.68
2023-04-26T11:09:00.972Z,41.85
2023-04-26T11:10:05.083Z,42.79
2023-04-26T11:11:09.152Z,43.45
2023-04-26T11:12:13.749Z,43.42
2023-04-26T11:13:18.098Z,42.31
2023-04-26T11:14:22.429Z,42.57
2023-04-26T11:15:26.466Z,42.31
2023-04-26T11:16:30.895Z,41.91
2023-04-26T11:17:35.459Z,41.82
2023-04-26T11:18:39.239Z,41.54
2023-04-26T11:19:41.341Z,41.86
2023-04-26T11:20:53.387Z,42.03
2023-04-26T11:21:50.010Z,42.26
2023-04-26T11:22:54.089Z,42.86
2023-04-26T11:23:58.444Z,42.66
2023-04-26T11:25:02.779Z,42.82
2023-04-26T11:26:07.371Z,43.35
2023-04-26T11:27:06.597Z,43.42
2023-04-26T11:28:08.461Z,43.65
2023-04-26T11:29:12.813Z,43.82
2023-04-26T11:30:17.424Z,44.05
2023-04-26T11:31:21.555Z,44.53
2023-04-26T11:32:26.337Z,44.69
2023-04-26T11:33:30.413Z,44.94
2023-04-26T11:34:34.507Z,44.58
2023-04-26T11:35:38.806Z,43.90
2023-04-26T11:36:43.176Z,44.91
2023-04-26T11:37:47.797Z,45.39
2023-04-26T11:38:52.170Z,44.90
2023-04-26T11:39:56.435Z,45.40
2023-04-26T11:41:00.556Z,45.54
2023-04-26T11:42:05.377Z,45.29
2023-04-26T11:43:09.220Z,45.84
2023-04-26T11:44:13.799Z,45.65
2023-04-26T11:45:18.141Z,45.70
2023-04-26T11:46:22.558Z,45.45
2023-04-26T11:47:26.557Z,45.09
2023-04-26T11:48:31.173Z,45.58
2023-04-26T11:49:35.245Z,45.12
2023-04-26T11:50:39.835Z,45.83
2023-04-26T11:51:44.173Z,45.39
2023-04-26T11:52:48.499Z,45.34
2023-04-26T11:53:52.574Z,44.60
2023-04-26T11:54:57.163Z,44.64
2023-04-26T11:56:01.522Z,44.49
2023-04-26T11:57:01.919Z,43.12
2023-04-26T11:58:05.990Z,43.33
2023-04-26T11:59:10.931Z,42.21
2023-04-26T12:00:15.016Z,42.90
2023-04-26T12:01:19.594Z,42.22
2023-04-26T12:02:24.451Z,41.58
2023-04-26T12:03:28.496Z,40.39
2023-04-26T12:04:32.777Z,40.23
2023-04-26T12:05:36.977Z,41.31
2023-04-26T12:06:41.278Z,41.72
2023-04-26T12:07:45.602Z,42.19
2023-04-26T12:08:50.043Z,41.57
2023-04-26T12:09:54.034Z,41.18
2023-04-26T12:10:58.652Z,40.61
2023-04-26T12:12:03.237Z,39.59
2023-04-26T12:13:07.330Z,41.20
2023-04-26T12:14:11.678Z,41.13
2023-04-26T12:15:16.048Z,39.74
2023-04-26T12:16:26.232Z,41.59
2023-04-26T12:17:24.505Z,42.40
2023-04-26T12:18:28.771Z,42.36
2023-04-26T12:19:33.351Z,42.43
2023-04-26T12:20:37.744Z,43.20
2023-04-26T12:21:41.804Z,42.78
2023-04-26T12:22:46.407Z,43.89
2023-04-26T12:23:50.508Z,44.25
2023-04-26T12:24:54.816Z,44.80
2023-04-26T12:25:59.162Z,43.63
2023-04-26T12:27:01.647Z,43.90
2023-04-26T12:28:03.641Z,44.53
2023-04-26T12:29:08.238Z,44.02
2023-04-26T12:30:12.565Z,44.53
2023-04-26T12:31:16.995Z,44.01
2023-04-26T12:32:22.625Z,43.54
2023-04-26T12:33:25.683Z,43.76
2023-04-26T12:34:29.927Z,44.37
2023-04-26T12:35:33.984Z,43.39
2023-04-26T12:36:38.323Z,43.72
2023-04-26T12:37:42.655Z,43.21
2023-04-26T12:38:47.250Z,42.68
2023-04-26T12:39:51.579Z,42.87
2023-04-26T12:40:56.166Z,42.13
2023-04-26T12:42:02.835Z,42.44
2023-04-26T12:43:02.279Z,41.97
2023-04-26T12:44:06.330Z,42.14
2023-04-26T12:45:10.672Z,41.39
2023-04-26T12:46:15.303Z,41.72
2023-04-26T12:47:19.587Z,42.26
2023-04-26T12:48:23.932Z,41.37
2023-04-26T12:49:28.021Z,42.32
2023-04-26T12:50:32.628Z,41.62
2023-04-26T12:51:37.211Z,41.52
2023-04-26T12:52:41.300Z,40.74
2023-04-26T12:53:45.360Z,40.12
2023-04-26T12:54:49.692Z,38.89
2023-04-26T12:55:54.312Z,39.62
2023-04-26T12:56:54.686Z,38.39
2023-04-26T12:57:58.799Z,39.15
2023-04-26T12:59:02.853Z,39.10
2023-04-26T13:00:07.196Z,38.71
2023-04-26T13:01:11.803Z,37.25
2023-04-26T13:02:16.224Z,38.71
2023-04-26T13:03:20.866Z,38.54
2023-04-26T13:04:24.973Z,38.75
2023-04-26T13:05:28.874Z,38.61
2023-04-26T13:06:33.255Z,37.86
2023-04-26T13:07:37.808Z,38.27
2023-04-26T13:08:41.881Z,38.98
2023-04-26T13:09:46.218Z,38.95
2023-04-26T13:10:50.815Z,38.00
2023-04-26T13:11:55.151Z,38.98
2023-04-26T13:12:59.758Z,38.73
2023-04-26T13:14:03.838Z,39.58
2023-04-26T13:15:07.891Z,39.52
2023-04-26T13:16:13.009Z,39.35
2023-04-26T13:17:16.564Z,39.76
2023-04-26T13:18:21.151Z,40.27
2023-04-26T13:19:30.994Z,40.24
2023-04-26T13:20:31.045Z,40.64
2023-04-26T13:21:34.724Z,40.70
2023-04-26T13:22:38.575Z,40.73
2023-04-26T13:23:42.880Z,40.79
2023-04-26T13:24:47.214Z,40.93
2023-04-26T13:25:51.824Z,41.19
2023-04-26T13:26:57.184Z,41.28
2023-04-26T13:28:01.549Z,40.46
2023-04-26T13:29:05.890Z,40.84
2023-04-26T13:30:10.191Z,41.98
2023-04-26T13:31:14.548Z,41.72
2023-04-26T13:32:18.627Z,41.86
2023-04-26T13:33:20.277Z,41.30
2023-04-26T13:34:27.608Z,40.95
2023-04-26T13:35:31.948Z,41.36
2023-04-26T13:36:36.022Z,41.25
2023-04-26T13:37:40.406Z,41.41